createdAt,value
2023-03-02T00:01:03.005Z,8.61
2023-03-02T00:03:30.547Z,8.48
2023-03-02T00:05:58.131Z,8.67
2023-03-02T00:08:25.268Z,8.61
2023-03-02T00:10:54.561Z,8.52
2023-03-02T00:13:21.706Z,8.57
2023-03-02T00:15:48.873Z,8.70
2023-03-02T00:18:16.362Z,8.65
2023-03-02T00:20:43.490Z,8.45
2023-03-02T00:23:10.644Z,8.40
2023-03-02T00:25:38.052Z,8.56
2023-03-02T00:28:05.173Z,8.62
2023-03-02T00:30:32.327Z,8.60
2023-03-02T00:32:59.757Z,8.52
2023-03-02T00:35:29.696Z,8.37
2023-03-02T00:37:56.860Z,8.20
2023-03-02T00:40:24.295Z,8.22
2023-03-02T00:42:51.466Z,8.15
2023-03-02T00:45:18.620Z,8.15
2023-03-02T00:47:46.528Z,7.61
2023-03-02T00:50:13.698Z,7.72
2023-03-02T00:52:40.874Z,7.78
2023-03-02T00:55:09.381Z,7.65
2023-03-02T00:57:36.592Z,7.83
2023-03-02T01:00:05.035Z,7.67
2023-03-02T01:02:32.914Z,7.62
2023-03-02T01:05:00.346Z,7.73
2023-03-02T01:07:28.531Z,7.64
2023-03-02T01:09:56.036Z,8.09
2023-03-02T01:12:23.210Z,8.37
2023-03-02T01:14:50.917Z,8.12
2023-03-02T01:17:19.403Z,8.33
2023-03-02T01:19:46.798Z,8.13
2023-03-02T01:22:13.923Z,8.19
2023-03-02T01:24:41.363Z,8.15
2023-03-02T01:27:08.688Z,7.69
2023-03-02T01:29:36.126Z,7.62
2023-03-02T01:32:03.897Z,7.55
2023-03-02T01:34:31.049Z,7.51
2023-03-02T01:36:58.201Z,7.52
2023-03-02T01:39:25.657Z,7.63
2023-03-02T01:41:52.924Z,7.56
2023-03-02T01:44:39.606Z,7.59
2023-03-02T01:47:25.674Z,7.64
2023-03-02T01:49:56.014Z,7.57
2023-03-02T01:52:24.168Z,7.57
2023-03-02T01:54:51.814Z,7.57
2023-03-02T01:57:20.497Z,7.32
2023-03-02T01:59:48.003Z,7.28
2023-03-02T02:02:15.208Z,7.09
2023-03-02T02:04:42.968Z,7.14
2023-03-02T02:07:10.213Z,7.44
2023-03-02T02:09:39.350Z,7.80
2023-03-02T02:12:07.096Z,7.73
2023-03-02T02:14:34.499Z,7.55
2023-03-02T02:17:01.705Z,7.78
2023-03-02T02:19:33.486Z,7.76
2023-03-02T02:22:01.389Z,7.47
2023-03-02T02:24:38.161Z,7.37
2023-03-02T02:27:05.597Z,7.05
2023-03-02T02:29:37.462Z,7.20
2023-03-02T02:32:12.198Z,7.41
2023-03-02T02:34:41.562Z,7.75
2023-03-02T02:37:11.306Z,7.93
2023-03-02T02:39:39.606Z,7.75
2023-03-02T02:42:08.196Z,7.56
2023-03-02T02:44:35.364Z,7.31
2023-03-02T02:47:02.532Z,7.56
2023-03-02T02:49:36.255Z,7.55
2023-03-02T02:52:04.555Z,7.24
2023-03-02T02:54:32.020Z,7.61
2023-03-02T02:56:59.710Z,7.66
2023-03-02T02:59:34.006Z,7.74
2023-03-02T03:02:01.546Z,7.65
2023-03-02T03:04:30.258Z,7.63
2023-03-02T03:07:01.803Z,7.28
2023-03-02T03:09:30.254Z,7.22
2023-03-02T03:11:58.871Z,7.28
2023-03-02T03:14:35.626Z,7.44
2023-03-02T03:17:03.172Z,7.52
2023-03-02T03:19:33.405Z,7.52
2023-03-02T03:22:01.382Z,7.44
2023-03-02T03:24:30.307Z,7.60
2023-03-02T03:26:58.250Z,7.77
2023-03-02T03:29:26.774Z,7.87
2023-03-02T03:31:56.183Z,7.94
2023-03-02T03:34:23.897Z,7.96
2023-03-02T03:36:51.019Z,8.38
2023-03-02T03:39:19.625Z,8.42
2023-03-02T03:41:47.383Z,8.35
2023-03-02T03:44:14.878Z,7.02
2023-03-02T03:46:42.590Z,7.52
2023-03-02T03:49:10.086Z,7.53
2023-03-02T03:51:37.395Z,7.94
2023-03-02T03:54:08.043Z,8.11
2023-03-02T03:56:37.262Z,8.26
2023-03-02T03:59:08.089Z,8.32
2023-03-02T04:01:40.720Z,8.31
2023-03-02T04:04:10.740Z,8.40
2023-03-02T04:06:38.782Z,8.46
2023-03-02T04:09:06.447Z,8.56
2023-03-02T04:11:35.080Z,8.55
2023-03-02T04:14:02.564Z,8.65
2023-03-02T04:16:30.586Z,8.62
2023-03-02T04:18:58.529Z,8.57
2023-03-02T04:21:26.072Z,8.73
2023-03-02T04:23:53.652Z,8.31
2023-03-02T04:26:22.530Z,8.34
2023-03-02T04:28:50.870Z,8.19
2023-03-02T04:31:18.809Z,8.46
2023-03-02T04:33:46.254Z,8.70
2023-03-02T04:36:13.730Z,8.65
2023-03-02T04:38:40.985Z,8.61
2023-03-02T04:41:08.458Z,8.55
2023-03-02T04:43:35.589Z,8.61
2023-03-02T04:46:02.793Z,8.58
2023-03-02T04:48:30.255Z,8.40
2023-03-02T04:50:57.675Z,7.55
2023-03-02T04:53:24.843Z,7.58
2023-03-02T04:55:52.303Z,7.46
2023-03-02T04:58:19.435Z,7.60
2023-03-02T05:00:46.602Z,7.70
2023-03-02T05:03:14.000Z,6.18
2023-03-02T05:05:41.146Z,7.18
2023-03-02T05:08:08.345Z,7.09
2023-03-02T05:10:35.742Z,6.49
2023-03-02T05:13:04.826Z,7.19
2023-03-02T05:15:33.452Z,7.29
2023-03-02T05:18:01.058Z,7.54
2023-03-02T05:20:30.344Z,7.27
2023-03-02T05:22:58.721Z,7.18
2023-03-02T05:25:26.373Z,7.21
2023-03-02T05:27:53.477Z,6.90
2023-03-02T05:30:20.921Z,7.01
2023-03-02T05:32:48.771Z,6.64
2023-03-02T05:35:16.313Z,6.32
2023-03-02T05:37:44.784Z,6.96
2023-03-02T05:40:13.743Z,6.18
2023-03-02T05:42:41.498Z,6.84
2023-03-02T05:45:09.760Z,7.03
2023-03-02T05:47:37.212Z,7.08
2023-03-02T05:50:04.534Z,7.11
2023-03-02T05:52:31.676Z,7.24
2023-03-02T05:54:59.591Z,7.36
2023-03-02T05:57:26.824Z,7.66
2023-03-02T05:59:54.005Z,8.05
2023-03-02T06:02:21.408Z,8.22
2023-03-02T06:04:49.091Z,8.47
2023-03-02T06:07:16.238Z,8.31
2023-03-02T06:09:43.389Z,8.65
2023-03-02T06:12:10.848Z,8.79
2023-03-02T06:14:37.996Z,8.98
2023-03-02T06:17:05.117Z,9.20
2023-03-02T06:19:32.611Z,9.46
2023-03-02T06:21:59.766Z,9.81
2023-03-02T06:24:26.926Z,10.02
2023-03-02T06:26:54.427Z,9.95
2023-03-02T06:29:21.905Z,9.51
2023-03-02T06:31:49.100Z,9.60
2023-03-02T06:34:16.521Z,9.15
2023-03-02T06:36:43.673Z,9.38
2023-03-02T06:39:15.753Z,9.68
2023-03-02T06:41:43.489Z,9.90
2023-03-02T06:44:10.625Z,10.03
2023-03-02T06:46:37.987Z,10.26
2023-03-02T06:49:05.634Z,10.59
2023-03-02T06:51:32.783Z,11.87
2023-03-02T06:53:59.981Z,12.97
2023-03-02T06:56:27.386Z,12.89
2023-03-02T06:58:54.547Z,12.96
2023-03-02T07:01:21.766Z,12.48
2023-03-02T07:03:49.226Z,12.41
2023-03-02T07:06:16.445Z,12.46
2023-03-02T07:08:43.592Z,12.32
2023-03-02T07:11:11.756Z,12.29
2023-03-02T07:13:39.394Z,12.79
2023-03-02T07:16:07.861Z,12.33
2023-03-02T07:18:35.630Z,12.05
2023-03-02T07:21:02.899Z,12.60
2023-03-02T07:23:30.147Z,13.38
2023-03-02T07:25:57.960Z,12.97
2023-03-02T07:28:25.379Z,12.93
2023-03-02T07:30:53.340Z,12.82
2023-03-02T07:33:21.218Z,12.87
2023-03-02T07:35:48.436Z,13.33
2023-03-02T07:38:15.648Z,12.35
2023-03-02T07:40:43.118Z,12.43
2023-03-02T07:43:10.632Z,12.57
2023-03-02T07:45:38.182Z,11.34
2023-03-02T07:48:05.767Z,12.73
2023-03-02T07:50:32.974Z,11.64
2023-03-02T07:53:00.205Z,12.00
2023-03-02T07:55:27.673Z,13.10
2023-03-02T07:57:54.866Z,14.56
2023-03-02T08:00:22.065Z,15.20
2023-03-02T08:02:49.551Z,14.98
2023-03-02T08:05:16.951Z,15.64
2023-03-02T08:07:45.897Z,15.35
2023-03-02T08:10:13.356Z,14.08
2023-03-02T08:12:40.573Z,14.72
2023-03-02T08:15:08.014Z,13.73
2023-03-02T08:17:35.447Z,12.08
2023-03-02T08:20:03.331Z,13.16
2023-03-02T08:22:30.523Z,13.87
2023-03-02T08:24:58.009Z,13.21
2023-03-02T08:27:25.173Z,12.19
2023-03-02T08:29:54.176Z,11.99
2023-03-02T08:32:21.697Z,11.50
2023-03-02T08:34:51.721Z,12.08
2023-03-02T08:37:19.240Z,11.42
2023-03-02T08:39:46.700Z,11.50
2023-03-02T08:42:13.846Z,12.87
2023-03-02T08:44:41.097Z,12.89
2023-03-02T08:47:08.498Z,13.39
2023-03-02T08:49:37.907Z,14.02
2023-03-02T08:52:05.136Z,13.51
2023-03-02T08:54:34.538Z,13.45
2023-03-02T08:57:02.112Z,13.83
2023-03-02T08:59:29.322Z,13.85
2023-03-02T09:01:56.795Z,15.10
2023-03-02T09:04:24.112Z,17.37
2023-03-02T09:06:51.299Z,17.30
2023-03-02T09:09:18.762Z,15.63
2023-03-02T09:11:46.502Z,16.60
2023-03-02T09:14:13.667Z,16.37
2023-03-02T09:16:41.166Z,14.70
2023-03-02T09:19:08.353Z,14.53
2023-03-02T09:21:35.838Z,15.25
2023-03-02T09:24:03.449Z,14.37
2023-03-02T09:26:30.632Z,14.11
2023-03-02T09:28:57.827Z,14.84
2023-03-02T09:31:25.419Z,14.65
2023-03-02T09:33:52.899Z,15.79
2023-03-02T09:36:21.733Z,15.74
2023-03-02T09:38:49.174Z,15.83
2023-03-02T09:41:19.264Z,14.97
2023-03-02T09:43:52.475Z,15.18
2023-03-02T09:46:23.646Z,13.39
2023-03-02T09:48:57.069Z,14.49
2023-03-02T09:51:40.332Z,14.38
2023-03-02T09:54:10.615Z,14.98
2023-03-02T09:56:40.259Z,14.65
2023-03-02T09:59:09.152Z,14.65
2023-03-02T10:01:38.617Z,14.51
2023-03-02T10:04:26.646Z,14.33
2023-03-02T10:06:58.316Z,14.03
2023-03-02T10:09:25.761Z,14.08
2023-03-02T10:12:14.625Z,14.25
2023-03-02T10:14:43.024Z,15.05
2023-03-02T10:17:23.457Z,14.77
2023-03-02T10:19:53.386Z,14.58
2023-03-02T10:22:39.314Z,13.98
2023-03-02T10:25:24.365Z,14.88
2023-03-02T10:27:52.825Z,15.52
2023-03-02T10:30:22.039Z,16.37
2023-03-02T10:32:50.399Z,16.04
2023-03-02T10:35:22.991Z,16.08
2023-03-02T10:38:09.889Z,16.17
2023-03-02T10:40:45.433Z,15.83
2023-03-02T10:43:17.832Z,15.62
2023-03-02T10:45:45.011Z,16.39
2023-03-02T10:48:13.459Z,16.61
2023-03-02T10:50:42.057Z,16.70
2023-03-02T10:53:18.460Z,16.56
2023-03-02T10:55:47.302Z,16.21
2023-03-02T10:58:25.767Z,16.11
2023-03-02T11:01:00.354Z,16.21
2023-03-02T11:03:27.680Z,16.61
2023-03-02T11:05:55.084Z,16.79
2023-03-02T11:08:23.179Z,16.50
2023-03-02T11:10:57.001Z,16.72
2023-03-02T11:13:32.308Z,16.53
2023-03-02T11:16:00.510Z,15.80
2023-03-02T11:18:29.619Z,16.82
2023-03-02T11:21:15.686Z,15.52
2023-03-02T11:24:01.654Z,14.98
2023-03-02T11:26:31.167Z,15.83
2023-03-02T11:28:58.614Z,16.11
2023-03-02T11:31:32.856Z,16.29
2023-03-02T11:34:20.717Z,16.33
2023-03-02T11:37:02.490Z,16.20
2023-03-02T11:39:41.154Z,16.31
2023-03-02T11:42:20.477Z,16.26
2023-03-02T11:44:48.352Z,15.69
2023-03-02T11:47:15.595Z,15.97
2023-03-02T11:49:45.177Z,15.73
2023-03-02T11:52:17.624Z,15.77
2023-03-02T11:54:46.107Z,15.25
2023-03-02T11:57:21.936Z,14.81
2023-03-02T11:59:49.165Z,15.37
2023-03-02T12:02:16.689Z,15.86
2023-03-02T12:04:44.411Z,15.47
2023-03-02T12:07:19.048Z,15.73
2023-03-02T12:09:56.104Z,15.18
2023-03-02T12:12:25.981Z,15.34
2023-03-02T12:14:53.459Z,15.30
2023-03-02T12:17:26.660Z,15.45
2023-03-02T12:19:55.027Z,15.20
2023-03-02T12:22:26.332Z,14.57
2023-03-02T12:24:59.867Z,14.81
2023-03-02T12:27:27.253Z,14.79
2023-03-02T12:30:09.561Z,14.40
2023-03-02T12:32:36.837Z,14.19
2023-03-02T12:35:06.984Z,14.93
2023-03-02T12:37:51.889Z,15.21
2023-03-02T12:40:38.095Z,15.42
2023-03-02T12:43:19.832Z,14.82
2023-03-02T12:45:50.374Z,13.64
2023-03-02T12:48:20.839Z,14.24
2023-03-02T12:50:48.499Z,13.88
2023-03-02T12:53:17.544Z,14.64
2023-03-02T12:55:44.799Z,14.89
2023-03-02T12:58:17.859Z,15.16
2023-03-02T13:00:50.020Z,15.75
2023-03-02T13:03:17.542Z,15.90
2023-03-02T13:05:46.518Z,15.68
2023-03-02T13:08:16.468Z,14.56
2023-03-02T13:10:47.708Z,15.39
2023-03-02T13:13:25.661Z,15.02
2023-03-02T13:15:57.908Z,15.48
2023-03-02T13:18:26.324Z,14.88
2023-03-02T13:20:53.980Z,15.51
2023-03-02T13:23:21.304Z,14.49
2023-03-02T13:25:48.415Z,15.19
2023-03-02T13:28:22.837Z,15.07
2023-03-02T13:30:50.990Z,14.47
2023-03-02T13:33:20.784Z,15.03
2023-03-02T13:35:48.039Z,15.51
2023-03-02T13:38:19.162Z,15.26
2023-03-02T13:40:48.383Z,15.47
2023-03-02T13:43:35.071Z,14.75
2023-03-02T13:46:03.720Z,13.79
2023-03-02T13:48:31.208Z,15.19
2023-03-02T13:51:03.582Z,15.00
2023-03-02T13:53:31.638Z,13.82
2023-03-02T13:56:00.257Z,14.94
2023-03-02T13:58:28.233Z,15.35
2023-03-02T14:00:55.679Z,15.44
2023-03-02T14:03:27.660Z,14.78
2023-03-02T14:05:56.616Z,14.04
2023-03-02T14:08:24.137Z,14.42
2023-03-02T14:10:57.030Z,15.03
2023-03-02T14:13:25.584Z,14.18
2023-03-02T14:15:53.218Z,14.42
2023-03-02T14:18:24.520Z,14.45
2023-03-02T14:20:52.006Z,14.85
2023-03-02T14:23:19.182Z,13.19
2023-03-02T14:25:46.374Z,14.63
2023-03-02T14:28:18.048Z,13.84
2023-03-02T14:30:46.138Z,14.09
2023-03-02T14:33:15.909Z,14.52
2023-03-02T14:35:43.140Z,14.67
2023-03-02T14:38:10.841Z,15.53
2023-03-02T14:40:38.525Z,14.83
2023-03-02T14:43:05.841Z,14.45
2023-03-02T14:45:32.971Z,15.08
2023-03-02T14:48:00.423Z,15.15
2023-03-02T14:50:27.579Z,15.42
2023-03-02T14:52:55.358Z,14.60
2023-03-02T14:55:25.876Z,14.37
2023-03-02T14:57:54.329Z,14.68
2023-03-02T15:00:21.661Z,15.23
2023-03-02T15:02:49.223Z,14.84
2023-03-02T15:05:16.462Z,15.34
2023-03-02T15:07:43.646Z,15.63
2023-03-02T15:10:15.460Z,16.07
2023-03-02T15:12:42.680Z,16.00
2023-03-02T15:15:10.140Z,15.51
2023-03-02T15:17:37.611Z,15.49
2023-03-02T15:20:06.192Z,14.56
2023-03-02T15:22:33.526Z,14.24
2023-03-02T15:25:00.964Z,15.22
2023-03-02T15:27:28.166Z,15.37
2023-03-02T15:29:56.871Z,15.27
2023-03-02T15:32:24.553Z,15.79
2023-03-02T15:34:51.700Z,16.52
2023-03-02T15:37:18.879Z,16.21
2023-03-02T15:39:46.352Z,16.15
2023-03-02T15:42:14.067Z,16.17
2023-03-02T15:44:41.339Z,16.50
2023-03-02T15:47:10.480Z,15.79
2023-03-02T15:49:37.614Z,16.15
2023-03-02T15:52:04.770Z,16.11
2023-03-02T15:54:32.186Z,15.76
2023-03-02T15:56:59.354Z,15.74
2023-03-02T15:59:27.456Z,15.81
2023-03-02T16:01:59.276Z,16.21
2023-03-02T16:04:27.288Z,16.16
2023-03-02T16:06:55.009Z,15.54
2023-03-02T16:09:25.310Z,15.95
2023-03-02T16:11:52.987Z,14.64
2023-03-02T16:14:20.157Z,14.21
2023-03-02T16:16:47.397Z,14.55
2023-03-02T16:19:17.717Z,15.50
2023-03-02T16:21:46.265Z,15.39
2023-03-02T16:24:13.863Z,15.42
2023-03-02T16:26:41.336Z,15.61
2023-03-02T16:29:08.486Z,15.61
2023-03-02T16:31:37.797Z,15.86
2023-03-02T16:34:09.459Z,15.50
2023-03-02T16:36:37.479Z,15.56
2023-03-02T16:39:05.128Z,15.92
2023-03-02T16:41:32.575Z,15.16
2023-03-02T16:43:59.910Z,13.98
2023-03-02T16:46:28.290Z,13.52
2023-03-02T16:48:56.007Z,14.03
2023-03-02T16:51:23.182Z,14.20
2023-03-02T16:53:50.349Z,13.51
2023-03-02T16:56:17.780Z,12.55
2023-03-02T16:58:44.982Z,12.36
2023-03-02T17:01:13.530Z,12.50
2023-03-02T17:03:41.365Z,12.07
2023-03-02T17:06:08.931Z,12.76
2023-03-02T17:08:36.242Z,12.34
2023-03-02T17:11:03.720Z,12.51
2023-03-02T17:13:30.863Z,12.64
2023-03-02T17:15:58.665Z,12.14
2023-03-02T17:18:28.880Z,12.10
2023-03-02T17:20:56.853Z,12.54
2023-03-02T17:23:24.135Z,12.40
2023-03-02T17:25:51.758Z,12.99
2023-03-02T17:28:18.949Z,13.28
2023-03-02T17:30:46.592Z,13.60
2023-03-02T17:33:14.141Z,13.89
2023-03-02T17:35:42.610Z,14.20
2023-03-02T17:38:10.132Z,14.23
2023-03-02T17:40:37.578Z,14.43
2023-03-02T17:43:04.703Z,14.51
2023-03-02T17:45:31.821Z,14.27
2023-03-02T17:47:59.247Z,14.33
2023-03-02T17:50:26.916Z,14.76
2023-03-02T17:52:55.323Z,14.82
2023-03-02T17:55:22.921Z,14.96
2023-03-02T17:57:50.052Z,14.82
2023-03-02T18:00:18.378Z,14.81
2023-03-02T18:02:45.840Z,14.82
2023-03-02T18:05:13.224Z,15.00
2023-03-02T18:07:40.470Z,14.74
2023-03-02T18:10:08.211Z,14.81
2023-03-02T18:12:35.425Z,14.84
2023-03-02T18:15:02.869Z,14.83
2023-03-02T18:17:30.975Z,14.75
2023-03-02T18:19:58.173Z,14.57
2023-03-02T18:22:25.488Z,14.66
2023-03-02T18:24:53.066Z,14.59
2023-03-02T18:27:20.338Z,14.68
2023-03-02T18:29:47.531Z,14.58
2023-03-02T18:32:15.267Z,14.28
2023-03-02T18:34:42.468Z,14.28
2023-03-02T18:37:09.657Z,14.43
2023-03-02T18:39:40.225Z,14.15
2023-03-02T18:42:07.593Z,14.04
2023-03-02T18:44:35.066Z,14.05
2023-03-02T18:47:02.826Z,13.72
2023-03-02T18:49:29.994Z,13.67
2023-03-02T18:51:57.333Z,13.66
2023-03-02T18:54:24.843Z,13.89
2023-03-02T18:56:52.078Z,13.88
2023-03-02T18:59:19.253Z,13.79
2023-03-02T19:01:47.273Z,13.81
2023-03-02T19:04:14.697Z,13.80
2023-03-02T19:06:42.393Z,13.69
2023-03-02T19:09:10.339Z,13.75
2023-03-02T19:11:37.605Z,13.60
2023-03-02T19:14:04.874Z,13.65
2023-03-02T19:16:32.533Z,13.47
2023-03-02T19:18:59.693Z,13.54
2023-03-02T19:21:27.068Z,13.39
2023-03-02T19:23:54.756Z,13.19
2023-03-02T19:26:21.958Z,13.19
2023-03-02T19:28:49.319Z,13.21
2023-03-02T19:31:17.752Z,13.11
2023-03-02T19:33:45.451Z,12.78
2023-03-02T19:36:12.998Z,12.76
2023-03-02T19:38:44.500Z,12.63
2023-03-02T19:41:13.015Z,12.68
2023-03-02T19:43:41.985Z,12.24
2023-03-02T19:46:12.318Z,12.03
2023-03-02T19:48:39.663Z,12.12
2023-03-02T19:51:07.866Z,12.26
2023-03-02T19:53:35.628Z,11.97
2023-03-02T19:56:03.689Z,12.14
2023-03-02T19:58:33.159Z,11.94
2023-03-02T20:01:00.758Z,12.14
2023-03-02T20:03:28.205Z,12.11
2023-03-02T20:05:55.998Z,11.85
2023-03-02T20:08:23.220Z,11.78
2023-03-02T20:10:50.751Z,12.01
2023-03-02T20:13:18.133Z,11.73
2023-03-02T20:15:46.519Z,11.79
2023-03-02T20:18:15.778Z,11.71
2023-03-02T20:20:45.182Z,11.66
2023-03-02T20:23:12.912Z,11.56
2023-03-02T20:25:40.342Z,11.67
2023-03-02T20:28:09.131Z,11.27
2023-03-02T20:30:38.029Z,11.52
2023-03-02T20:33:06.357Z,11.51
2023-03-02T20:35:33.836Z,11.68
2023-03-02T20:38:01.892Z,11.61
2023-03-02T20:40:30.621Z,11.38
2023-03-02T20:42:57.975Z,11.64
2023-03-02T20:45:25.187Z,11.58
2023-03-02T20:47:52.656Z,11.47
2023-03-02T20:50:21.333Z,11.19
2023-03-02T20:52:48.512Z,11.40
2023-03-02T20:55:16.005Z,11.27
2023-03-02T20:57:43.352Z,11.10
2023-03-02T21:00:13.704Z,11.22
2023-03-02T21:02:41.170Z,11.11
2023-03-02T21:05:08.582Z,11.32
2023-03-02T21:07:35.849Z,11.30
2023-03-02T21:10:07.847Z,11.25
2023-03-02T21:12:35.862Z,10.95
2023-03-02T21:15:04.082Z,11.05
2023-03-02T21:17:31.523Z,10.85
2023-03-02T21:19:58.837Z,10.84
2023-03-02T21:22:27.460Z,10.61
2023-03-02T21:24:54.625Z,10.42
2023-03-02T21:27:21.836Z,10.10
2023-03-02T21:29:49.497Z,10.31
2023-03-02T21:32:16.750Z,10.25
2023-03-02T21:34:44.939Z,10.36
2023-03-02T21:37:12.530Z,10.22
2023-03-02T21:39:39.871Z,10.32
2023-03-02T21:42:07.000Z,10.30
2023-03-02T21:44:34.454Z,10.36
2023-03-02T21:47:01.595Z,10.34
2023-03-02T21:49:28.858Z,10.29
2023-03-02T21:51:56.281Z,10.39
2023-03-02T21:54:23.440Z,10.02
2023-03-02T21:56:50.592Z,10.19
2023-03-02T21:59:18.003Z,10.17
2023-03-02T22:01:45.205Z,10.15
2023-03-02T22:04:12.721Z,10.10
2023-03-02T22:06:39.890Z,9.83
2023-03-02T22:09:07.052Z,10.01
2023-03-02T22:11:35.884Z,9.65
2023-03-02T22:14:12.892Z,9.56
2023-03-02T22:16:41.287Z,9.50
2023-03-02T22:19:20.318Z,9.71
2023-03-02T22:21:48.442Z,9.63
2023-03-02T22:24:33.968Z,9.91
2023-03-02T22:27:20.334Z,9.77
2023-03-02T22:29:47.847Z,9.66
2023-03-02T22:32:19.536Z,9.48
2023-03-02T22:34:47.592Z,9.45
2023-03-02T22:37:19.234Z,9.20
2023-03-02T22:39:46.966Z,9.21
2023-03-02T22:42:15.840Z,9.03
2023-03-02T22:44:43.741Z,8.96
2023-03-02T22:47:15.422Z,9.04
2023-03-02T22:49:43.087Z,9.45
2023-03-02T22:52:14.565Z,9.13
2023-03-02T22:54:41.685Z,9.12
2023-03-02T22:57:25.554Z,9.38
2023-03-02T22:59:52.712Z,9.31
2023-03-02T23:02:22.370Z,9.11
2023-03-02T23:04:50.224Z,8.69
2023-03-02T23:07:18.572Z,8.63
2023-03-02T23:09:46.067Z,8.41
2023-03-02T23:12:16.084Z,8.54
2023-03-02T23:14:58.713Z,8.61
2023-03-02T23:17:36.534Z,8.57
2023-03-02T23:20:04.993Z,8.36
2023-03-02T23:22:32.483Z,8.19
2023-03-02T23:24:59.633Z,8.37
2023-03-02T23:27:27.795Z,8.71
2023-03-02T23:29:55.200Z,8.75
2023-03-02T23:32:22.395Z,8.57
2023-03-02T23:34:50.153Z,8.54
2023-03-02T23:37:17.598Z,8.55
2023-03-02T23:39:46.166Z,8.78
2023-03-02T23:42:13.379Z,9.15
2023-03-02T23:44:40.786Z,9.27
2023-03-02T23:47:07.998Z,8.83
2023-03-02T23:49:35.152Z,8.78
2023-03-02T23:52:03.600Z,8.80
2023-03-02T23:54:30.786Z,8.63
2023-03-02T23:56:57.908Z,8.60
2023-03-02T23:59:25.346Z,9.02
